createdAt,value
2019-03-20T00:01:04.673Z,18.23
2019-03-20T00:03:31.999Z,17.63
2019-03-20T00:05:59.376Z,18.23
2019-03-20T00:08:26.711Z,16.80
2019-03-20T00:10:54.076Z,17.43
2019-03-20T00:13:21.469Z,17.23
2019-03-20T00:15:48.712Z,18.33
2019-03-20T00:18:16.052Z,18.97
2019-03-20T00:20:43.334Z,18.10
2019-03-20T00:23:10.591Z,18.10
2019-03-20T00:25:37.834Z,18.27
2019-03-20T00:28:05.140Z,18.03
2019-03-20T00:30:32.400Z,19.13
2019-03-20T00:32:59.643Z,19.20
2019-03-20T00:35:26.956Z,19.13
2019-03-20T00:37:54.197Z,21.00
2019-03-20T00:40:21.450Z,21.37
2019-03-20T00:42:48.753Z,21.33
2019-03-20T00:45:16.174Z,25.97
2019-03-20T00:47:43.529Z,26.17
2019-03-20T00:50:14.200Z,24.80
2019-03-20T00:52:41.445Z,24.23
2019-03-20T00:55:08.964Z,24.13
2019-03-20T00:57:36.241Z,24.73
2019-03-20T01:00:04.702Z,23.90
2019-03-20T01:02:31.975Z,23.77
2019-03-20T01:04:59.273Z,25.53
2019-03-20T01:07:26.549Z,21.87
2019-03-20T01:09:53.876Z,19.83
2019-03-20T01:12:21.158Z,20.77
2019-03-20T01:14:48.453Z,19.23
2019-03-20T01:17:15.715Z,19.47
2019-03-20T01:19:43.010Z,19.27
2019-03-20T01:22:10.269Z,20.23
2019-03-20T01:24:37.524Z,18.90
2019-03-20T01:27:04.833Z,22.70
2019-03-20T01:29:32.110Z,21.87
2019-03-20T01:31:59.414Z,21.20
2019-03-20T01:34:26.651Z,25.13
2019-03-20T01:36:56.772Z,23.57
2019-03-20T01:39:24.067Z,24.37
2019-03-20T01:41:51.323Z,23.77
2019-03-20T01:44:18.614Z,24.97
2019-03-20T01:46:45.874Z,23.70
2019-03-20T01:49:13.120Z,23.53
2019-03-20T01:51:40.617Z,23.53
2019-03-20T01:54:07.938Z,23.67
2019-03-20T01:56:35.205Z,23.00
2019-03-20T01:59:02.535Z,25.53
2019-03-20T02:01:30.103Z,24.20
2019-03-20T02:03:57.347Z,25.93
2019-03-20T02:06:24.624Z,24.80
2019-03-20T02:08:54.005Z,25.70
2019-03-20T02:11:21.365Z,26.03
2019-03-20T02:13:48.662Z,25.93
2019-03-20T02:16:15.936Z,25.90
2019-03-20T02:18:43.168Z,24.83
2019-03-20T02:21:10.458Z,27.10
2019-03-20T02:23:37.737Z,26.17
2019-03-20T02:26:05.016Z,27.50
2019-03-20T02:28:32.284Z,25.80
2019-03-20T02:30:59.526Z,23.07
2019-03-20T02:33:26.900Z,23.10
2019-03-20T02:35:54.256Z,28.33
2019-03-20T02:38:21.551Z,24.37
2019-03-20T02:40:48.787Z,25.60
2019-03-20T02:43:16.019Z,26.30
2019-03-20T02:45:43.343Z,26.30
2019-03-20T02:48:10.596Z,26.23
2019-03-20T02:50:37.853Z,24.60
2019-03-20T02:53:05.162Z,24.57
2019-03-20T02:55:32.383Z,26.27
2019-03-20T02:57:59.616Z,23.67
2019-03-20T03:00:26.875Z,26.53
2019-03-20T03:02:54.108Z,26.27
2019-03-20T03:05:21.401Z,26.50
2019-03-20T03:07:48.668Z,27.63
2019-03-20T03:10:16.520Z,26.70
2019-03-20T03:12:43.810Z,26.13
2019-03-20T03:15:11.180Z,26.83
2019-03-20T03:17:38.526Z,24.67
2019-03-20T03:20:06.094Z,25.40
2019-03-20T03:22:33.342Z,26.23
2019-03-20T03:25:00.754Z,23.80
2019-03-20T03:27:28.156Z,27.07
2019-03-20T03:29:55.436Z,26.80
2019-03-20T03:32:22.747Z,25.97
2019-03-20T03:34:50.040Z,24.97
2019-03-20T03:37:17.303Z,25.53
2019-03-20T03:39:44.538Z,25.93
2019-03-20T03:42:11.823Z,26.30
2019-03-20T03:44:39.067Z,23.27
2019-03-20T03:47:06.346Z,27.10
2019-03-20T03:49:33.755Z,26.20
2019-03-20T03:52:01.025Z,25.93
2019-03-20T03:54:28.278Z,26.20
2019-03-20T03:56:55.725Z,26.90
2019-03-20T03:59:22.933Z,25.70
2019-03-20T04:01:50.175Z,24.83
2019-03-20T04:04:17.427Z,25.63
2019-03-20T04:06:44.773Z,27.23
2019-03-20T04:09:12.057Z,24.63
2019-03-20T04:11:39.401Z,25.63
2019-03-20T04:14:06.690Z,25.93
2019-03-20T04:16:33.929Z,25.13
2019-03-20T04:19:01.313Z,22.23
2019-03-20T04:21:28.590Z,23.83
2019-03-20T04:23:55.866Z,25.60
2019-03-20T04:26:23.118Z,26.97
2019-03-20T04:28:50.358Z,22.07
2019-03-20T04:31:17.650Z,23.47
2019-03-20T04:33:44.891Z,24.23
2019-03-20T04:36:12.156Z,23.00
2019-03-20T04:38:39.446Z,23.63
2019-03-20T04:41:06.762Z,28.23
2019-03-20T04:43:34.016Z,27.57
2019-03-20T04:46:01.416Z,24.17
2019-03-20T04:48:28.622Z,26.67
2019-03-20T04:50:55.877Z,24.03
2019-03-20T04:53:23.196Z,26.40
2019-03-20T04:55:50.449Z,22.27
2019-03-20T04:58:17.694Z,24.87
2019-03-20T05:00:44.990Z,28.20
2019-03-20T05:03:12.254Z,28.57
2019-03-20T05:05:39.530Z,26.80
2019-03-20T05:08:06.798Z,28.13
2019-03-20T05:10:34.069Z,27.10
2019-03-20T05:13:01.451Z,28.17
2019-03-20T05:15:28.713Z,29.03
2019-03-20T05:17:56.059Z,29.50
2019-03-20T05:20:23.329Z,28.27
2019-03-20T05:22:50.581Z,29.87
2019-03-20T05:25:17.865Z,26.97
2019-03-20T05:27:45.102Z,23.73
2019-03-20T05:30:12.608Z,29.83
2019-03-20T05:32:39.927Z,23.20
2019-03-20T05:35:07.538Z,29.63
2019-03-20T05:37:34.800Z,28.17
2019-03-20T05:40:02.272Z,27.83
2019-03-20T05:42:29.580Z,28.27
2019-03-20T05:44:56.888Z,27.30
2019-03-20T05:47:24.141Z,27.90
2019-03-20T05:49:51.381Z,27.07
2019-03-20T05:52:18.676Z,28.30
2019-03-20T05:54:45.921Z,28.37
2019-03-20T05:57:13.138Z,28.83
2019-03-20T05:59:40.465Z,26.70
2019-03-20T06:02:07.744Z,25.57
2019-03-20T06:04:34.978Z,24.53
2019-03-20T06:07:02.253Z,28.07
2019-03-20T06:09:29.468Z,28.10
2019-03-20T06:11:56.776Z,28.03
2019-03-20T06:14:24.084Z,29.43
2019-03-20T06:16:51.349Z,28.43
2019-03-20T06:19:18.630Z,27.90
2019-03-20T06:21:45.955Z,29.73
2019-03-20T06:24:13.217Z,26.97
2019-03-20T06:26:40.477Z,24.73
2019-03-20T06:29:07.740Z,26.83
2019-03-20T06:31:35.056Z,26.17
2019-03-20T06:34:02.337Z,28.97
2019-03-20T06:36:29.666Z,22.33
2019-03-20T06:38:56.967Z,24.37
2019-03-20T06:41:24.220Z,26.07
2019-03-20T06:43:51.509Z,27.13
2019-03-20T06:46:18.793Z,27.17
2019-03-20T06:48:46.084Z,27.67
2019-03-20T06:51:13.337Z,24.57
2019-03-20T06:53:41.478Z,24.43
2019-03-20T06:56:08.759Z,24.17
2019-03-20T06:58:36.033Z,29.00
2019-03-20T07:01:29.639Z,28.87
2019-03-20T07:04:38.647Z,26.70
2019-03-20T07:07:15.318Z,25.23
2019-03-20T07:09:53.589Z,25.60
2019-03-20T07:12:20.885Z,28.73
2019-03-20T07:14:48.196Z,28.33
2019-03-20T07:17:15.504Z,27.77
2019-03-20T07:19:42.781Z,18.87
2019-03-20T07:22:10.104Z,26.63
2019-03-20T07:24:37.373Z,25.63
2019-03-20T07:27:04.678Z,26.93
2019-03-20T07:29:31.931Z,28.37
2019-03-20T07:31:59.292Z,24.50
2019-03-20T07:34:26.571Z,19.03
2019-03-20T07:36:53.877Z,23.97
2019-03-20T07:39:21.142Z,23.07
2019-03-20T07:41:48.402Z,27.33
2019-03-20T07:44:16.833Z,26.10
2019-03-20T07:46:44.287Z,28.13
2019-03-20T07:49:11.693Z,26.97
2019-03-20T07:51:39.116Z,22.70
2019-03-20T07:54:06.419Z,24.43
2019-03-20T07:56:33.658Z,28.23
2019-03-20T07:59:01.021Z,24.67
2019-03-20T08:01:28.280Z,25.43
2019-03-20T08:03:55.575Z,28.13
2019-03-20T08:06:22.863Z,25.30
2019-03-20T08:08:50.122Z,22.57
2019-03-20T08:11:17.379Z,25.37
2019-03-20T08:13:44.679Z,20.87
2019-03-20T08:16:12.032Z,24.07
2019-03-20T08:18:39.281Z,25.60
2019-03-20T08:21:06.554Z,28.10
2019-03-20T08:23:33.828Z,21.87
2019-03-20T08:26:01.200Z,22.53
2019-03-20T08:28:28.509Z,26.27
2019-03-20T08:30:55.816Z,22.37
2019-03-20T08:33:23.125Z,25.33
2019-03-20T08:35:50.473Z,25.90
2019-03-20T08:38:18.901Z,25.13
2019-03-20T08:40:46.417Z,26.67
2019-03-20T08:43:13.643Z,24.60
2019-03-20T08:45:40.903Z,25.43
2019-03-20T08:48:08.300Z,27.73
2019-03-20T08:50:35.562Z,22.87
2019-03-20T08:53:02.824Z,27.30
2019-03-20T08:55:30.663Z,24.63
2019-03-20T08:57:57.921Z,26.10
2019-03-20T09:00:25.294Z,23.90
2019-03-20T09:02:52.798Z,20.50
2019-03-20T09:05:20.053Z,24.47
2019-03-20T09:07:47.815Z,26.03
2019-03-20T09:10:17.052Z,23.03
2019-03-20T09:12:44.577Z,20.87
2019-03-20T09:15:12.717Z,24.03
2019-03-20T09:17:40.043Z,18.30
2019-03-20T09:20:09.256Z,21.80
2019-03-20T09:22:36.489Z,21.13
2019-03-20T09:25:04.652Z,23.07
2019-03-20T09:27:31.884Z,20.00
2019-03-20T09:29:59.174Z,19.30
2019-03-20T09:32:26.444Z,21.73
2019-03-20T09:34:55.136Z,15.13
2019-03-20T09:37:22.435Z,17.80
2019-03-20T09:39:49.674Z,17.87
2019-03-20T09:42:16.892Z,22.33
2019-03-20T09:44:44.159Z,20.90
2019-03-20T09:47:11.416Z,19.47
2019-03-20T09:49:39.051Z,16.73
2019-03-20T09:52:06.302Z,21.47
2019-03-20T09:54:33.582Z,19.33
2019-03-20T09:57:01.029Z,20.30
2019-03-20T09:59:28.302Z,19.43
2019-03-20T10:01:55.649Z,21.30
2019-03-20T10:04:22.948Z,16.90
2019-03-20T10:06:50.181Z,17.77
2019-03-20T10:09:17.438Z,19.70
2019-03-20T10:11:47.888Z,19.43
2019-03-20T10:14:15.218Z,18.40
2019-03-20T10:16:42.469Z,19.43
2019-03-20T10:19:09.755Z,19.70
2019-03-20T10:21:37.028Z,16.10
2019-03-20T10:24:04.345Z,14.40
2019-03-20T10:26:31.746Z,20.57
2019-03-20T10:29:01.103Z,20.07
2019-03-20T10:31:28.495Z,17.57
2019-03-20T10:33:55.803Z,18.93
2019-03-20T10:36:23.049Z,18.50
2019-03-20T10:38:50.446Z,20.90
2019-03-20T10:41:17.715Z,22.07
2019-03-20T10:43:45.046Z,21.30
2019-03-20T10:46:12.293Z,17.83
2019-03-20T10:48:39.549Z,18.93
2019-03-20T10:51:06.833Z,21.20
2019-03-20T10:53:34.094Z,21.00
2019-03-20T10:56:01.877Z,20.60
2019-03-20T10:58:29.172Z,20.43
2019-03-20T11:00:56.401Z,18.27
2019-03-20T11:03:23.670Z,16.47
2019-03-20T11:05:50.919Z,17.47
2019-03-20T11:08:18.412Z,19.07
2019-03-20T11:10:45.630Z,22.47
2019-03-20T11:13:12.863Z,20.17
2019-03-20T11:15:40.161Z,17.77
2019-03-20T11:18:07.540Z,21.10
2019-03-20T11:20:34.770Z,19.47
2019-03-20T11:23:02.132Z,21.40
2019-03-20T11:25:29.391Z,20.30
2019-03-20T11:27:56.862Z,21.23
2019-03-20T11:30:24.398Z,18.17
2019-03-20T11:32:51.859Z,21.13
2019-03-20T11:35:19.278Z,20.47
2019-03-20T11:37:46.567Z,22.87
2019-03-20T11:40:18.985Z,21.57
2019-03-20T11:42:46.454Z,22.13
2019-03-20T11:45:14.151Z,19.80
2019-03-20T11:47:41.487Z,16.87
2019-03-20T11:50:12.223Z,18.10
2019-03-20T11:52:39.504Z,20.20
2019-03-20T11:55:07.021Z,21.13
2019-03-20T11:57:35.012Z,21.77
2019-03-20T12:00:02.469Z,20.20
2019-03-20T12:02:31.459Z,20.10
2019-03-20T12:05:00.492Z,18.97
2019-03-20T12:07:27.806Z,19.77
2019-03-20T12:09:55.100Z,19.90
2019-03-20T12:12:22.343Z,16.43
2019-03-20T12:14:49.645Z,19.57
2019-03-20T12:17:17.030Z,19.53
2019-03-20T12:19:45.108Z,18.57
2019-03-20T12:22:12.654Z,20.73
2019-03-20T12:24:40.114Z,14.60
2019-03-20T12:27:15.066Z,18.93
2019-03-20T12:29:36.581Z,15.60
2019-03-20T12:32:04.035Z,15.40
2019-03-20T12:34:31.373Z,18.47
2019-03-20T12:36:58.667Z,18.93
2019-03-20T12:39:25.936Z,19.37
2019-03-20T12:41:53.281Z,16.83
2019-03-20T12:44:20.593Z,20.73
2019-03-20T12:46:47.865Z,17.73
2019-03-20T12:49:15.078Z,19.07
2019-03-20T12:51:42.371Z,17.30
2019-03-20T12:54:09.650Z,19.90
2019-03-20T12:56:36.881Z,15.83
2019-03-20T12:59:04.259Z,16.93
2019-03-20T13:01:31.538Z,17.07
2019-03-20T13:03:58.770Z,15.70
2019-03-20T13:06:26.062Z,18.70
2019-03-20T13:08:55.776Z,16.30
2019-03-20T13:11:23.029Z,20.27
2019-03-20T13:13:50.291Z,18.00
2019-03-20T13:16:17.931Z,10.47
2019-03-20T13:18:45.230Z,18.00
2019-03-20T13:21:12.520Z,18.07
2019-03-20T13:23:39.741Z,15.00
2019-03-20T13:26:07.015Z,17.80
2019-03-20T13:28:34.296Z,15.70
2019-03-20T13:31:05.710Z,18.77
2019-03-20T13:33:32.947Z,19.57
2019-03-20T13:36:00.211Z,15.97
2019-03-20T13:38:27.498Z,18.00
2019-03-20T13:40:54.785Z,19.03
2019-03-20T13:43:22.038Z,19.23
2019-03-20T13:45:49.293Z,19.13
2019-03-20T13:48:16.541Z,19.17
2019-03-20T13:50:43.834Z,21.27
2019-03-20T13:53:11.127Z,19.33
2019-03-20T13:55:38.444Z,19.13
2019-03-20T13:58:05.696Z,19.97
2019-03-20T14:00:33.011Z,19.27
2019-03-20T14:03:00.438Z,20.33
2019-03-20T14:05:27.676Z,18.53
2019-03-20T14:07:55.022Z,19.17
2019-03-20T14:10:25.559Z,19.23
2019-03-20T14:57:34.210Z,20.07
2019-03-20T15:00:01.540Z,20.07
2019-03-20T15:02:28.794Z,19.63
2019-03-20T15:04:56.141Z,22.53
2019-03-20T15:07:23.488Z,20.27
2019-03-20T15:09:50.753Z,20.67
2019-03-20T15:12:18.059Z,22.90
2019-03-20T15:17:39.492Z,19.57
2019-03-20T15:20:07.082Z,20.07
2019-03-20T15:22:34.400Z,18.13
2019-03-20T15:25:01.669Z,19.87
2019-03-20T15:27:28.910Z,18.90
2019-03-20T15:29:56.217Z,18.23
2019-03-20T15:32:23.501Z,16.57
2019-03-20T15:34:50.772Z,17.90
2019-03-20T15:37:18.044Z,17.67
2019-03-20T15:39:45.384Z,18.37
2019-03-20T15:42:12.654Z,18.47
2019-03-20T15:44:39.939Z,19.40
2019-03-20T15:47:07.198Z,19.10
2019-03-20T15:49:34.446Z,11.70
2019-03-20T15:52:01.735Z,17.00
2019-03-20T15:54:28.992Z,18.23
2019-03-20T15:56:56.268Z,18.43
2019-03-20T15:59:23.557Z,16.87
2019-03-20T16:01:50.844Z,19.03
2019-03-20T16:04:18.093Z,18.67
2019-03-20T16:06:45.357Z,18.60
2019-03-20T16:09:12.635Z,17.00
2019-03-20T16:11:40.007Z,19.10
2019-03-20T16:14:07.233Z,20.03
2019-03-20T16:16:34.523Z,18.07
2019-03-20T16:19:01.793Z,20.27
2019-03-20T16:21:29.070Z,19.63
2019-03-20T16:23:56.364Z,11.77
2019-03-20T16:26:23.601Z,18.87
2019-03-20T16:28:52.414Z,16.63
2019-03-20T16:31:19.746Z,17.37
2019-03-20T16:33:48.141Z,18.03
2019-03-20T16:36:15.431Z,19.10
2019-03-20T16:38:42.694Z,18.83
2019-03-20T16:41:16.699Z,19.70
2019-03-20T16:43:39.188Z,13.33
2019-03-20T16:46:06.482Z,19.03
2019-03-20T16:48:33.734Z,17.37
2019-03-20T16:51:01.043Z,19.33
2019-03-20T16:53:28.316Z,17.53
2019-03-20T16:55:55.562Z,17.07
2019-03-20T16:58:24.425Z,18.17
2019-03-20T17:00:51.692Z,17.70
2019-03-20T17:03:18.995Z,19.17
2019-03-20T17:05:46.277Z,17.87
2019-03-20T17:08:13.545Z,16.23
2019-03-20T17:10:40.861Z,19.27
2019-03-20T17:13:08.190Z,18.37
2019-03-20T17:15:35.493Z,17.53
2019-03-20T17:18:03.300Z,16.37
2019-03-20T17:20:30.618Z,14.20
2019-03-20T17:22:58.938Z,14.57
2019-03-20T17:25:26.170Z,15.27
2019-03-20T17:27:53.461Z,14.63
2019-03-20T17:30:25.894Z,14.70
2019-03-20T17:32:53.751Z,14.90
2019-03-20T17:35:20.999Z,15.67
2019-03-20T17:37:48.347Z,15.53
2019-03-20T17:40:16.424Z,16.10
2019-03-20T17:42:43.761Z,15.17
2019-03-20T17:45:11.999Z,13.73
2019-03-20T17:47:39.298Z,15.80
2019-03-20T17:50:09.148Z,15.90
2019-03-20T17:52:36.410Z,15.37
2019-03-20T17:55:04.278Z,16.37
2019-03-20T17:57:31.584Z,15.73
2019-03-20T17:59:58.835Z,17.83
2019-03-20T18:02:26.232Z,16.60
2019-03-20T18:04:53.507Z,16.23
2019-03-20T18:07:20.904Z,17.23
2019-03-20T18:09:48.162Z,17.27
2019-03-20T18:12:18.061Z,16.17
2019-03-20T18:14:45.339Z,17.23
2019-03-20T18:17:12.608Z,17.27
2019-03-20T18:19:40.001Z,15.47
2019-03-20T18:22:07.244Z,16.60
2019-03-20T18:24:36.096Z,15.53
2019-03-20T18:27:03.505Z,15.70
2019-03-20T18:29:30.762Z,16.80
2019-03-20T18:31:58.010Z,16.50
2019-03-20T18:34:25.303Z,16.27
2019-03-20T18:36:52.590Z,16.63
2019-03-20T18:39:20.852Z,17.30
2019-03-20T18:41:57.443Z,16.23
2019-03-20T18:44:17.353Z,16.30
2019-03-20T18:46:44.706Z,17.87
2019-03-20T18:49:11.970Z,15.37
2019-03-20T18:51:39.231Z,15.73
2019-03-20T18:54:06.491Z,15.37
2019-03-20T18:56:33.867Z,14.27
2019-03-20T18:59:02.854Z,14.63
2019-03-20T19:01:30.258Z,16.57
2019-03-20T19:03:57.505Z,16.97
2019-03-20T19:06:25.928Z,15.20
2019-03-20T19:08:53.206Z,14.60
2019-03-20T19:11:20.659Z,14.43
2019-03-20T19:13:48.036Z,13.70
2019-03-20T19:16:15.474Z,14.60
2019-03-20T19:18:42.956Z,16.57
2019-03-20T19:21:10.266Z,16.57
2019-03-20T19:23:37.692Z,16.23
2019-03-20T19:26:05.044Z,16.10
2019-03-20T19:28:32.293Z,18.27
2019-03-20T19:30:59.545Z,16.97
2019-03-20T19:33:27.360Z,17.50
2019-03-20T19:35:54.663Z,19.73
2019-03-20T19:38:21.936Z,17.97
2019-03-20T19:40:49.159Z,17.60
2019-03-20T19:43:16.403Z,18.10
2019-03-20T19:45:43.699Z,18.63
2019-03-20T19:48:10.940Z,17.90
2019-03-20T19:50:38.236Z,15.93
2019-03-20T19:53:05.493Z,15.80
2019-03-20T19:55:32.758Z,17.33
2019-03-20T19:58:00.087Z,16.73
2019-03-20T20:00:27.554Z,16.33
2019-03-20T20:02:54.799Z,16.60
2019-03-20T20:05:22.073Z,16.83
2019-03-20T20:07:49.305Z,16.40
2019-03-20T20:10:16.557Z,15.47
2019-03-20T20:12:43.950Z,15.93
2019-03-20T20:15:14.493Z,17.20
2019-03-20T20:17:42.367Z,16.97
2019-03-20T20:20:11.969Z,15.73
2019-03-20T20:22:39.237Z,17.63
2019-03-20T20:25:06.720Z,16.47
2019-03-20T20:27:33.961Z,16.20
2019-03-20T20:30:01.301Z,15.53
2019-03-20T20:32:28.609Z,17.17
2019-03-20T20:34:55.985Z,16.00
2019-03-20T20:37:23.307Z,15.63
2019-03-20T20:39:50.575Z,16.33
2019-03-20T20:42:17.824Z,16.87
2019-03-20T20:44:45.098Z,16.90
2019-03-20T20:47:12.422Z,15.50
2019-03-20T20:49:39.678Z,15.63
2019-03-20T20:52:07.051Z,16.03
2019-03-20T20:54:34.299Z,15.97
2019-03-20T20:57:01.561Z,17.00
2019-03-20T20:59:28.892Z,17.17
2019-03-20T21:01:56.143Z,16.73
2019-03-20T21:04:23.460Z,17.83
2019-03-20T21:06:50.814Z,18.27
2019-03-20T21:09:18.061Z,18.80
2019-03-20T21:11:45.308Z,17.50
2019-03-20T21:14:12.781Z,18.93
2019-03-20T21:16:40.840Z,19.50
2019-03-20T21:19:36.659Z,16.53
2019-03-20T21:22:36.313Z,18.60
2019-03-20T21:25:04.798Z,17.77
2019-03-20T21:28:30.225Z,17.43
2019-03-20T21:31:33.943Z,16.53
2019-03-20T21:34:54.949Z,18.23
2019-03-20T21:37:58.664Z,19.47
2019-03-20T21:40:26.486Z,19.93
2019-03-20T21:43:50.060Z,18.53
2019-03-20T21:46:50.152Z,19.80
2019-03-20T21:49:17.936Z,20.20
2019-03-20T21:51:45.732Z,19.57
2019-03-20T21:54:54.657Z,21.23
2019-03-20T21:57:52.281Z,23.23
2019-03-20T22:01:03.505Z,23.57
2019-03-20T22:03:31.302Z,24.07
2019-03-20T22:06:36.294Z,25.23
2019-03-20T22:09:21.938Z,25.63
2019-03-20T22:12:33.228Z,24.93
2019-03-20T22:15:09.211Z,24.10
2019-03-20T22:18:26.332Z,25.33
2019-03-20T22:21:17.006Z,26.03
2019-03-20T22:24:09.734Z,26.17
2019-03-20T22:27:15.152Z,27.50
2019-03-20T22:29:42.976Z,28.20
2019-03-20T22:33:06.742Z,27.43
2019-03-20T22:36:14.001Z,25.73
2019-03-20T22:39:36.865Z,27.87
2019-03-20T22:42:37.832Z,26.73
2019-03-20T22:45:20.588Z,28.60
2019-03-20T22:48:34.496Z,27.07
2019-03-20T22:51:32.569Z,25.70
2019-03-20T22:54:46.415Z,26.77
2019-03-20T22:57:28.674Z,28.23
2019-03-20T22:59:56.569Z,26.63
2019-03-20T23:02:54.719Z,27.43
2019-03-20T23:05:22.535Z,28.37
2019-03-20T23:07:50.331Z,28.57
2019-03-20T23:10:18.206Z,29.63
2019-03-20T23:12:46.016Z,29.13
2019-03-20T23:15:15.379Z,26.70
2019-03-20T23:17:43.242Z,26.63
2019-03-20T23:20:14.217Z,25.90
2019-03-20T23:22:42.025Z,25.67
2019-03-20T23:25:10.115Z,25.60
2019-03-20T23:27:37.945Z,25.57
2019-03-20T23:30:10.367Z,26.87
2019-03-20T23:32:38.269Z,29.03
2019-03-20T23:35:06.298Z,28.90
2019-03-20T23:37:34.080Z,28.37
2019-03-20T23:40:02.040Z,26.70
2019-03-20T23:42:29.856Z,27.27
2019-03-20T23:44:57.645Z,25.40
2019-03-20T23:47:38.005Z,26.77
2019-03-20T23:50:06.933Z,27.80
2019-03-20T23:52:34.752Z,27.87
2019-03-20T23:55:02.653Z,30.13
2019-03-20T23:57:30.476Z,30.97
